createdAt,value
2019-03-25T00:00:11.064Z,24.18
2019-03-25T00:05:14.803Z,23.83
2019-03-25T00:10:18.400Z,23.00
2019-03-25T00:15:22.087Z,23.32
2019-03-25T00:20:25.677Z,23.77
2019-03-25T00:25:29.271Z,23.22
2019-03-25T00:30:32.975Z,22.45
2019-03-25T00:35:36.604Z,23.27
2019-03-25T00:40:40.189Z,22.93
2019-03-25T00:45:43.869Z,21.85
2019-03-25T00:50:47.573Z,23.10
2019-03-25T00:55:51.123Z,22.70
2019-03-25T01:00:54.740Z,22.73
2019-03-25T01:05:58.389Z,19.77
2019-03-25T01:11:02.208Z,21.87
2019-03-25T01:16:05.926Z,22.60
2019-03-25T01:21:09.584Z,23.98
2019-03-25T01:26:13.352Z,23.40
2019-03-25T01:31:18.786Z,23.95
2019-03-25T01:36:22.354Z,25.12
2019-03-25T01:41:26.043Z,23.15
2019-03-25T01:46:29.541Z,25.10
2019-03-25T01:51:33.317Z,24.82
2019-03-25T01:56:37.010Z,24.23
2019-03-25T02:01:40.983Z,23.27
2019-03-25T02:06:44.646Z,22.32
2019-03-25T02:11:48.200Z,22.37
2019-03-25T02:16:51.714Z,21.97
2019-03-25T02:21:55.312Z,21.60
2019-03-25T02:26:58.972Z,20.08
2019-03-25T02:32:02.560Z,20.00
2019-03-25T02:37:06.168Z,21.50
2019-03-25T02:42:09.837Z,20.57
2019-03-25T02:47:13.379Z,20.17
2019-03-25T02:52:16.904Z,18.52
2019-03-25T02:57:20.504Z,18.42
2019-03-25T03:02:24.101Z,18.07
2019-03-25T03:07:27.770Z,19.57
2019-03-25T03:12:31.372Z,19.45
2019-03-25T03:17:34.999Z,18.82
2019-03-25T03:22:38.614Z,18.52
2019-03-25T03:27:42.647Z,18.57
2019-03-25T03:32:46.490Z,17.23
2019-03-25T03:37:50.308Z,19.27
2019-03-25T03:42:54.071Z,18.17
2019-03-25T03:47:57.704Z,18.10
2019-03-25T03:53:01.527Z,18.92
2019-03-25T03:58:05.300Z,18.92
2019-03-25T04:03:08.912Z,19.90
2019-03-25T04:08:12.659Z,19.37
2019-03-25T04:13:16.294Z,19.98
2019-03-25T04:18:19.868Z,20.75
2019-03-25T04:23:23.405Z,19.20
2019-03-25T04:28:27.029Z,18.87
2019-03-25T04:33:30.883Z,19.73
2019-03-25T04:38:34.464Z,20.57
2019-03-25T04:43:38.056Z,19.35
2019-03-25T04:48:41.687Z,19.35
2019-03-25T04:53:45.462Z,19.23
2019-03-25T04:58:49.136Z,19.42
2019-03-25T05:03:52.774Z,18.95
2019-03-25T05:08:56.495Z,19.87
2019-03-25T05:14:00.172Z,18.00
2019-03-25T05:19:03.776Z,18.57
2019-03-25T05:24:07.430Z,19.30
2019-03-25T05:29:30.499Z,18.30
2019-03-25T05:34:34.326Z,18.37
2019-03-25T05:39:41.943Z,18.77
2019-03-25T05:44:45.890Z,20.37
2019-03-25T05:49:49.652Z,18.48
2019-03-25T05:54:53.360Z,19.10
2019-03-25T05:59:56.937Z,18.98
2019-03-25T06:05:00.739Z,19.73
2019-03-25T06:10:05.924Z,20.82
2019-03-25T12:55:42.946Z,6.75
2019-03-25T13:00:46.645Z,8.60
2019-03-25T13:05:50.365Z,8.95
2019-03-25T13:10:54.188Z,9.18
2019-03-25T13:15:57.890Z,7.95
2019-03-25T13:21:01.719Z,5.25
2019-03-25T13:26:05.440Z,6.95
2019-03-25T13:31:09.076Z,10.08
2019-03-25T13:36:12.903Z,8.18
2019-03-25T13:41:16.527Z,7.78
2019-03-25T13:46:20.268Z,8.98
2019-03-25T13:51:23.822Z,10.95
2019-03-25T13:56:27.512Z,15.08
2019-03-25T14:01:31.475Z,15.68
2019-03-25T14:06:35.100Z,14.53
2019-03-25T14:11:44.440Z,13.98
2019-03-25T14:16:48.096Z,13.55
2019-03-25T14:21:51.703Z,13.20
2019-03-25T14:26:55.364Z,13.83
2019-03-25T14:31:59.086Z,11.25
2019-03-25T14:37:02.874Z,13.62
2019-03-25T14:42:06.589Z,10.15
2019-03-25T14:47:10.449Z,10.60
2019-03-25T14:52:14.000Z,11.40
2019-03-25T14:57:18.019Z,9.63
2019-03-25T15:02:21.827Z,11.70
2019-03-25T15:07:25.601Z,8.85
2019-03-25T15:12:29.360Z,8.85
2019-03-25T15:17:33.059Z,9.53
2019-03-25T15:22:36.883Z,7.47
2019-03-25T15:27:40.637Z,5.37
2019-03-25T15:32:44.516Z,5.42
2019-03-25T15:37:48.187Z,11.38
2019-03-25T15:42:51.827Z,11.60
2019-03-25T15:47:55.476Z,7.47
2019-03-25T15:52:59.099Z,9.23
2019-03-25T15:58:02.810Z,5.70
2019-03-25T16:03:07.836Z,5.03
2019-03-25T16:08:11.522Z,6.15
2019-03-25T16:13:15.638Z,6.70
2019-03-25T16:18:36.798Z,4.80
2019-03-25T16:23:40.702Z,7.83
2019-03-25T16:28:44.273Z,9.05
2019-03-25T16:33:48.387Z,10.63
2019-03-25T16:38:52.067Z,11.48
2019-03-25T16:43:55.779Z,11.35
2019-03-25T16:48:59.503Z,13.08
2019-03-25T16:54:03.638Z,10.48
2019-03-25T16:59:07.332Z,19.80
2019-03-25T17:04:10.830Z,10.28
2019-03-25T17:09:14.502Z,9.40
2019-03-25T17:14:18.361Z,11.55
2019-03-25T17:19:21.943Z,13.43
2019-03-25T17:24:25.850Z,14.35
2019-03-25T17:29:29.639Z,15.90
2019-03-25T17:34:34.385Z,13.50
2019-03-25T17:39:37.977Z,15.40
2019-03-25T17:44:41.741Z,15.30
2019-03-25T17:49:45.622Z,18.37
2019-03-25T17:54:49.427Z,20.17
2019-03-25T17:59:53.236Z,18.23
2019-03-25T18:04:56.942Z,19.50
2019-03-25T18:10:00.730Z,18.57
2019-03-25T18:15:07.254Z,15.45
2019-03-25T18:20:18.679Z,14.83
2019-03-25T18:25:16.592Z,17.05
2019-03-25T18:30:31.721Z,16.05
2019-03-25T18:35:35.448Z,15.93
2019-03-25T18:40:39.295Z,17.10
2019-03-25T18:45:43.031Z,15.80
2019-03-25T18:50:46.764Z,16.95
2019-03-25T18:55:50.588Z,15.03
2019-03-25T19:00:54.415Z,14.47
2019-03-25T19:05:58.240Z,13.08
2019-03-25T19:11:02.111Z,15.18
2019-03-25T19:16:05.962Z,13.93
2019-03-25T19:21:09.733Z,13.53
2019-03-25T19:26:13.467Z,15.32
2019-03-25T19:31:17.298Z,11.70
2019-03-25T19:36:21.116Z,11.12
2019-03-25T19:41:32.193Z,11.85
2019-03-25T19:46:31.448Z,11.80
2019-03-25T19:51:35.510Z,11.22
2019-03-25T19:56:39.312Z,10.75
2019-03-25T20:01:43.086Z,12.65
2019-03-25T20:06:47.380Z,13.15
2019-03-25T20:11:51.453Z,12.18
2019-03-25T20:16:55.205Z,13.03
2019-03-25T20:21:58.990Z,14.18
2019-03-25T20:27:02.856Z,14.00
2019-03-25T20:32:06.668Z,14.33
2019-03-25T20:37:10.448Z,14.15
2019-03-25T20:42:14.597Z,13.18
2019-03-25T20:47:18.478Z,12.53
2019-03-25T20:52:24.445Z,12.85
2019-03-25T20:57:27.945Z,13.10
2019-03-25T21:02:44.194Z,14.40
2019-03-25T21:07:37.378Z,13.48
2019-03-25T21:12:41.176Z,16.70
2019-03-25T21:17:49.478Z,13.05
2019-03-25T21:27:58.871Z,12.58
2019-03-25T21:33:02.855Z,13.62
2019-03-25T21:38:06.646Z,22.48
2019-03-25T21:43:10.630Z,22.10
2019-03-25T21:48:14.299Z,12.80
2019-03-25T21:53:18.582Z,11.97
2019-03-25T21:58:22.314Z,12.63
2019-03-25T22:03:26.060Z,16.12
2019-03-25T22:08:29.824Z,12.73
2019-03-25T22:13:33.539Z,12.80
2019-03-25T22:18:37.307Z,13.60
2019-03-25T22:23:41.081Z,13.25
2019-03-25T22:28:44.761Z,13.22
2019-03-25T22:33:48.420Z,11.90
2019-03-25T22:38:52.276Z,12.23
2019-03-25T22:43:56.125Z,13.35
2019-03-25T22:49:00.226Z,11.83
2019-03-25T22:54:04.102Z,12.28
2019-03-25T22:59:07.852Z,12.40
2019-03-25T23:04:11.639Z,11.33
2019-03-25T23:09:15.538Z,12.03
2019-03-25T23:14:19.409Z,12.28
2019-03-25T23:19:23.255Z,11.38
2019-03-25T23:24:26.967Z,10.78
2019-03-25T23:29:32.029Z,10.43
2019-03-25T23:34:35.876Z,10.72
2019-03-25T23:39:39.692Z,10.68
2019-03-25T23:44:43.479Z,10.32
2019-03-25T23:49:47.241Z,9.33
2019-03-25T23:54:51.023Z,9.50
2019-03-25T23:59:54.783Z,9.25
